Time;durP1;ratioP1;P1;durP2;ratioP2;P2;SDS_P1;SDS_P2;PMS_P1;PMS_P2;Temp;Humidity;BMP_temperature;BMP_pressure;BME280_temperature;BME280_humidity;BME280_pressure;Samples;Min_cycle;Max_cycle;Signal;HPM_P1;HPM_P2
2023/12/28 00:03:04;;;;;;;38.30;20.90;;;;;;;-0.42;82.49;100983.92;110299;1231;1016098;-75
2023/12/28 00:07:57;;;;;;;33.40;18.60;;;;;;;-0.40;82.47;100968.90;110372;1230;1016188;-75
2023/12/28 00:12:50;;;;;;;29.70;19.00;;;;;;;-0.38;82.64;100968.13;110375;1231;1058317;-74
2023/12/28 00:17:41;;;;;;;34.70;20.40;;;;;;;-0.39;82.59;100962.44;110423;1231;1016025;-74
2023/12/28 00:22:33;;;;;;;30.80;17.80;;;;;;;-0.40;82.51;100950.66;110318;1230;1073517;-75
2023/12/28 00:27:25;;;;;;;26.80;16.10;;;;;;;-0.42;82.79;100944.23;110549;1233;1015702;-75
2023/12/28 00:32:17;;;;;;;30.90;18.20;;;;;;;-0.43;82.84;100948.56;110414;1234;1072959;-75
2023/12/28 00:37:09;;;;;;;25.20;15.90;;;;;;;-0.43;82.75;100936.33;110505;1234;1016272;-75
2023/12/28 00:42:00;;;;;;;25.70;15.60;;;;;;;-0.46;82.65;100918.95;110551;1230;1051142;-75
2023/12/28 00:46:52;;;;;;;26.80;16.20;;;;;;;-0.47;82.78;100905.59;110448;1231;1016190;-75
2023/12/28 00:51:43;;;;;;;24.10;14.80;;;;;;;-0.48;82.91;100915.02;110410;1231;1068545;-75
2023/12/28 00:56:35;;;;;;;26.00;11.90;;;;;;;-0.49;82.91;100929.28;110417;1231;1015850;-75
2023/12/28 01:01:26;;;;;;;23.70;13.80;;;;;;;-0.50;83.02;100956.79;110398;1231;1057021;-75
2023/12/28 01:06:18;;;;;;;21.30;13.10;;;;;;;-0.51;83.22;100942.25;110473;1231;1016113;-75
2023/12/28 01:11:11;;;;;;;20.30;13.80;;;;;;;-0.51;83.19;100932.90;110425;1231;1070765;-75
2023/12/28 01:16:05;;;;;;;27.90;15.60;;;;;;;-0.49;83.27;100921.94;110501;1234;1051006;-75
2023/12/28 01:20:57;;;;;;;21.60;13.10;;;;;;;-0.49;83.40;100917.05;110358;1230;1016476;-75
2023/12/28 01:25:48;;;;;;;23.70;12.80;;;;;;;-0.51;83.56;100919.80;110387;1231;1016600;-75
2023/12/28 01:30:40;;;;;;;17.40;11.40;;;;;;;-0.53;83.59;100903.16;110443;1232;1073681;-75
2023/12/28 01:35:31;;;;;;;29.10;14.20;;;;;;;-0.54;83.56;100891.48;110516;1231;1016180;-75
2023/12/28 01:40:23;;;;;;;19.50;11.60;;;;;;;-0.55;83.97;100892.10;110435;1232;1073088;-75
2023/12/28 01:45:14;;;;;;;19.70;11.40;;;;;;;-0.54;83.85;100872.43;110493;1234;1016040;-75
2023/12/28 01:50:07;;;;;;;18.80;11.00;;;;;;;-0.53;84.16;100865.99;110346;1234;1051161;-75
2023/12/28 01:54:59;;;;;;;21.00;10.80;;;;;;;-0.52;84.24;100870.99;110451;1231;1016039;-75
2023/12/28 01:59:52;;;;;;;19.50;11.40;;;;;;;-0.51;84.13;100854.92;110458;1232;1016454;-75
2023/12/28 02:04:45;;;;;;;20.70;12.60;;;;;;;-0.46;84.44;100841.58;110477;1232;1070881;-75
2023/12/28 02:09:37;;;;;;;21.30;10.90;;;;;;;-0.41;84.48;100820.65;110472;1232;1016152;-75
2023/12/28 02:14:29;;;;;;;21.50;12.10;;;;;;;-0.38;84.49;100825.91;110487;1232;1016226;-75
2023/12/28 02:19:32;;;;;;;19.20;9.40;;;;;;;-0.36;84.54;100798.44;110532;1232;1067688;-75
2023/12/28 02:24:23;;;;;;;22.60;11.70;;;;;;;-0.35;84.48;100770.37;110511;1231;1070967;-75
2023/12/28 02:29:15;;;;;;;29.70;13.50;;;;;;;-0.35;84.46;100756.05;110515;1232;1017344;-75
2023/12/28 02:34:19;;;;;;;22.60;10.30;;;;;;;-0.39;84.50;100762.36;110477;1232;1072202;-75
2023/12/28 02:39:14;;;;;;;16.70;9.50;;;;;;;-0.39;84.68;100763.89;110443;1234;1065212;-75
2023/12/28 02:44:06;;;;;;;21.00;9.30;;;;;;;-0.35;84.63;100754.86;110529;1229;1070852;-75
2023/12/28 02:48:59;;;;;;;18.00;10.40;;;;;;;-0.29;84.74;100745.38;110463;1234;1016912;-76
2023/12/28 02:53:50;;;;;;;20.50;9.70;;;;;;;-0.23;84.78;100732.46;110413;1230;1075561;-75
2023/12/28 02:58:42;;;;;;;18.10;10.40;;;;;;;-0.19;85.01;100724.17;110509;1233;1016258;-75
2023/12/28 03:03:33;;;;;;;23.20;10.00;;;;;;;-0.15;84.91;100722.36;110429;1231;1051832;-75
2023/12/28 03:08:25;;;;;;;19.10;9.50;;;;;;;-0.10;84.95;100718.40;110497;1232;1016417;-75
2023/12/28 03:13:17;;;;;;;16.60;9.10;;;;;;;-0.04;85.15;100710.79;110446;1234;1067516;-75
2023/12/28 03:18:10;;;;;;;15.90;9.20;;;;;;;0.03;84.89;100704.16;110406;1230;1016008;-75
2023/12/28 03:23:02;;;;;;;15.60;9.70;;;;;;;0.10;84.97;100692.66;110486;1232;1015814;-75
2023/12/28 03:27:54;;;;;;;18.40;8.60;;;;;;;0.15;84.75;100681.38;110373;1232;1072683;-74
2023/12/28 03:32:46;;;;;;;14.60;8.80;;;;;;;0.18;84.83;100678.48;110376;1232;1016018;-75
2023/12/28 03:37:38;;;;;;;20.50;9.50;;;;;;;0.19;85.00;100675.95;110430;1229;1016344;-75
2023/12/28 03:42:29;;;;;;;17.70;9.30;;;;;;;0.18;85.03;100669.61;110435;1231;1058161;-75
2023/12/28 03:47:21;;;;;;;21.40;8.60;;;;;;;0.15;84.94;100652.69;110530;1232;1016070;-75
2023/12/28 03:52:12;;;;;;;14.00;8.70;;;;;;;0.13;84.78;100648.84;110363;1232;1073037;-75
2023/12/28 03:57:04;;;;;;;13.90;7.00;;;;;;;0.12;84.90;100644.88;110340;1232;1016011;-75
2023/12/28 04:01:56;;;;;;;17.70;8.70;;;;;;;0.11;84.87;100638.69;110443;1231;1072224;-76
2023/12/28 04:06:47;;;;;;;16.10;7.70;;;;;;;0.09;84.66;100631.77;110532;1234;1016273;-74
2023/12/28 04:11:40;;;;;;;19.30;8.80;;;;;;;0.06;84.71;100621.84;110360;1232;1050732;-75
2023/12/28 04:16:31;;;;;;;17.50;7.60;;;;;;;0.03;84.56;100616.05;110451;1231;1016461;-75
2023/12/28 04:21:23;;;;;;;14.80;7.90;;;;;;;-0.02;84.36;100600.80;110398;1232;1067834;-75
2023/12/28 04:26:18;;;;;;;18.70;7.30;;;;;;;-0.03;84.42;100593.06;110426;1230;1016508;-75
2023/12/28 04:31:10;;;;;;;16.80;8.20;;;;;;;-0.05;84.29;100586.33;110457;1232;1058195;-75
2023/12/28 04:36:04;;;;;;;15.90;7.70;;;;;;;-0.05;84.13;100585.29;110530;1232;1015939;-74
2023/12/28 04:40:55;;;;;;;17.90;8.20;;;;;;;-0.06;84.17;100584.71;110441;1232;1070714;-75
2023/12/28 04:45:47;;;;;;;17.70;8.60;;;;;;;-0.03;83.89;100572.79;110340;1231;1016479;-75
2023/12/28 04:50:38;;;;;;;17.90;8.90;;;;;;;-0.03;83.67;100562.56;110472;1232;1072798;-75
2023/12/28 04:55:30;;;;;;;16.60;7.70;;;;;;;-0.04;83.73;100541.73;110367;1234;1016208;-75
2023/12/28 05:00:22;;;;;;;16.20;9.50;;;;;;;-0.05;83.60;100542.51;110481;1232;1051619;-75
2023/12/28 05:05:13;;;;;;;20.10;9.60;;;;;;;-0.06;83.73;100527.63;110429;1231;1015988;-75
2023/12/28 05:10:06;;;;;;;18.00;9.60;;;;;;;-0.07;83.41;100520.42;110492;1232;1065466;-75
2023/12/28 05:14:57;;;;;;;15.40;8.40;;;;;;;-0.06;83.54;100507.04;110531;1233;1016084;-75
2023/12/28 05:19:49;;;;;;;19.60;9.20;;;;;;;-0.03;83.45;100505.98;110426;1232;1058156;-74
2023/12/28 05:24:40;;;;;;;17.00;9.60;;;;;;;-0.02;83.30;100501.98;110432;1233;1016440;-75
2023/12/28 05:29:31;;;;;;;19.80;10.00;;;;;;;0.01;83.06;100485.91;110466;1232;1070575;-75
2023/12/28 05:34:23;;;;;;;17.00;10.10;;;;;;;0.03;83.14;100480.93;110487;1232;1016428;-76
2023/12/28 05:39:15;;;;;;;15.10;10.80;;;;;;;0.05;83.10;100475.41;110403;1234;1072062;-75
2023/12/28 05:44:07;;;;;;;18.80;10.50;;;;;;;0.07;83.19;100455.21;110465;1233;1016463;-75
2023/12/28 05:48:59;;;;;;;23.90;12.60;;;;;;;0.07;82.80;100435.96;110446;1232;1050449;-75
2023/12/28 05:53:51;;;;;;;19.90;11.40;;;;;;;0.06;83.00;100424.84;110380;1230;1016116;-75
2023/12/28 05:58:42;;;;;;;20.20;12.40;;;;;;;0.07;82.85;100417.23;110423;1231;1064606;-75
2023/12/28 06:03:34;;;;;;;21.50;12.50;;;;;;;0.07;82.68;100403.60;110514;1232;1016478;-75
2023/12/28 06:08:26;;;;;;;27.60;14.70;;;;;;;0.07;82.86;100409.89;110428;1233;1058443;-75
2023/12/28 06:13:19;;;;;;;22.40;13.90;;;;;;;0.07;82.58;100416.90;110445;1232;1016342;-74
2023/12/28 06:18:11;;;;;;;25.20;14.50;;;;;;;0.07;82.87;100420.48;110521;1233;1016185;-75
2023/12/28 06:23:02;;;;;;;26.90;13.50;;;;;;;0.08;82.72;100420.17;110332;1230;1051248;-75
2023/12/28 06:27:54;;;;;;;25.10;14.20;;;;;;;0.06;82.74;100421.92;110487;1230;1016490;-74
2023/12/28 06:32:45;;;;;;;22.10;13.20;;;;;;;0.03;82.58;100419.91;110336;1232;1067499;-75
2023/12/28 06:37:37;;;;;;;22.80;13.60;;;;;;;-0.01;82.71;100415.64;110459;1232;1016397;-75
2023/12/28 06:42:28;;;;;;;21.60;13.70;;;;;;;-0.02;82.74;100424.79;110474;1231;1057958;-74
2023/12/28 06:47:19;;;;;;;23.90;14.70;;;;;;;-0.03;82.58;100443.31;110502;1231;1016335;-74
2023/12/28 06:52:11;;;;;;;22.30;14.30;;;;;;;-0.02;82.69;100442.98;110419;1231;1070091;-74
2023/12/28 06:57:03;;;;;;;25.50;15.30;;;;;;;-0.06;82.76;100442.30;110529;1230;1016455;-75
2023/12/28 07:01:54;;;;;;;25.70;13.20;;;;;;;-0.08;82.62;100438.59;110324;1232;1073776;-75
2023/12/28 07:06:45;;;;;;;26.60;15.20;;;;;;;-0.10;82.60;100419.75;110461;1232;1016286;-74
2023/12/28 07:11:37;;;;;;;28.20;13.60;;;;;;;-0.09;82.76;100418.09;110420;1231;1050668;-75
2023/12/28 07:16:29;;;;;;;24.80;14.70;;;;;;;-0.06;82.69;100409.23;110485;1230;1016138;-75
2023/12/28 07:21:20;;;;;;;28.60;14.50;;;;;;;-0.01;82.62;100399.10;110340;1230;1067893;-75
2023/12/28 07:26:12;;;;;;;20.60;13.60;;;;;;;0.06;82.73;100393.80;110483;1231;1016290;-75
2023/12/28 07:31:03;;;;;;;19.80;13.70;;;;;;;0.11;82.40;100390.71;110299;1231;1058299;-76
2023/12/28 07:35:55;;;;;;;27.80;15.40;;;;;;;0.19;82.53;100395.21;110405;1231;1016431;-76
2023/12/28 07:40:46;;;;;;;23.60;14.10;;;;;;;0.32;82.25;100395.38;110438;1231;1070763;-75
2023/12/28 07:45:38;;;;;;;20.70;13.10;;;;;;;0.46;82.32;100376.15;110498;1230;1016213;-75
2023/12/28 07:50:30;;;;;;;26.40;13.90;;;;;;;0.60;82.21;100367.86;110408;1231;1072712;-75
2023/12/28 07:55:21;;;;;;;22.40;13.10;;;;;;;0.77;82.21;100371.80;110503;1234;1017228;-75
2023/12/28 08:00:13;;;;;;;26.10;13.10;;;;;;;0.95;81.81;100364.31;110307;1232;1050649;-76
2023/12/28 08:05:05;;;;;;;25.90;13.90;;;;;;;1.09;81.85;100354.10;110440;1231;1018027;-75
2023/12/28 08:09:57;;;;;;;24.80;14.50;;;;;;;1.23;81.67;100359.05;110394;1230;1067910;-75
2023/12/28 08:14:48;;;;;;;21.20;13.50;;;;;;;1.38;81.54;100373.92;110363;1231;1016265;-75
2023/12/28 08:19:40;;;;;;;21.00;13.70;;;;;;;1.51;81.52;100398.50;110408;1234;1058797;-75
2023/12/28 08:24:33;;;;;;;23.90;13.50;;;;;;;1.69;81.19;100397.29;110380;1230;1016364;-75
2023/12/28 08:29:24;;;;;;;23.10;13.00;;;;;;;1.85;80.95;100393.41;110402;1234;1070668;-75
2023/12/28 08:34:15;;;;;;;18.70;11.60;;;;;;;1.91;80.86;100388.58;110394;1232;1015955;-76
2023/12/28 08:39:07;;;;;;;19.50;12.60;;;;;;;2.04;80.67;100369.84;110415;1232;1072806;-73
2023/12/28 08:43:59;;;;;;;20.40;13.00;;;;;;;2.14;80.56;100357.14;110534;1233;1016179;-74
2023/12/28 08:48:51;;;;;;;21.50;13.20;;;;;;;2.23;80.34;100347.96;110328;1231;1050753;-75
2023/12/28 08:53:43;;;;;;;20.60;11.50;;;;;;;2.33;79.94;100341.88;110508;1231;1016338;-75
2023/12/28 08:58:35;;;;;;;20.60;12.90;;;;;;;2.45;80.09;100349.59;110462;1230;1064967;-76
2023/12/28 09:03:27;;;;;;;22.90;12.70;;;;;;;2.52;79.95;100351.29;110464;1232;1016101;-80
2023/12/28 09:08:18;;;;;;;24.40;13.50;;;;;;;2.58;80.09;100348.46;110619;1229;1015962;-80
2023/12/28 09:13:16;;;;;;;20.60;12.20;;;;;;;2.65;80.14;100334.38;110520;1231;1072948;-80
2023/12/28 09:18:07;;;;;;;21.90;13.70;;;;;;;2.77;80.23;100330.11;110534;1230;1066174;-80
2023/12/28 09:22:59;;;;;;;20.00;12.50;;;;;;;2.94;80.07;100322.91;110580;1232;1016398;-80
2023/12/28 09:27:50;;;;;;;24.40;13.40;;;;;;;3.11;80.16;100316.61;110524;1231;1057934;-80
2023/12/28 09:32:41;;;;;;;37.40;16.70;;;;;;;3.24;80.05;100311.12;110450;1231;1016169;-76
2023/12/28 09:37:33;;;;;;;21.30;14.00;;;;;;;3.35;80.05;100310.55;110327;1231;1072932;-80
2023/12/28 09:42:27;;;;;;;21.40;13.50;;;;;;;3.49;80.21;100307.29;110522;1230;1016399;-80
2023/12/28 09:47:18;;;;;;;22.40;12.00;;;;;;;3.56;80.40;100303.83;110494;1231;1073128;-78
2023/12/28 09:52:10;;;;;;;18.10;12.60;;;;;;;3.64;80.47;100296.91;110358;1234;1016428;-79
2023/12/28 09:57:02;;;;;;;20.30;12.40;;;;;;;3.63;80.53;100290.01;110417;1233;1053158;-80
2023/12/28 10:01:55;;;;;;;19.50;12.70;;;;;;;3.61;80.47;100290.64;110570;1232;1016984;-79
2023/12/28 10:06:47;;;;;;;20.70;10.10;;;;;;;3.69;81.08;100301.23;110389;1231;1065609;-80
2023/12/28 10:11:39;;;;;;;20.50;11.20;;;;;;;3.86;81.66;100308.52;110393;1232;1016219;-79
2023/12/28 10:16:31;;;;;;;18.90;10.50;;;;;;;4.06;81.74;100308.44;110401;1230;1059085;-82
2023/12/28 10:21:23;;;;;;;15.60;8.90;;;;;;;4.29;81.97;100300.85;110553;1230;1015850;-78
2023/12/28 10:26:18;;;;;;;14.40;10.10;;;;;;;4.40;81.82;100291.96;110374;1234;1070798;-77
2023/12/28 10:31:10;;;;;;;15.80;10.90;;;;;;;4.43;82.05;100292.59;110465;1229;1051239;-80
2023/12/28 10:36:08;;;;;;;14.60;9.20;;;;;;;4.45;82.04;100286.63;110380;1231;1015834;-78
2023/12/28 10:41:00;;;;;;;13.20;8.00;;;;;;;4.49;82.06;100282.31;110321;1233;1067909;-78
2023/12/28 10:45:55;;;;;;;14.30;9.00;;;;;;;4.57;82.02;100275.73;110359;1233;1016412;-77
2023/12/28 10:50:49;;;;;;;14.80;9.10;;;;;;;4.62;82.07;100279.84;110329;1231;1058880;-82
2023/12/28 10:55:48;;;;;;;11.20;7.00;;;;;;;4.70;81.83;100274.09;110464;1229;1016392;-84
2023/12/28 11:00:47;;;;;;;12.00;6.80;;;;;;;4.84;81.87;100285.91;110526;1230;1064642;-81
2023/12/28 11:05:41;;;;;;;13.00;6.10;;;;;;;5.01;81.89;100283.72;110456;1233;1070891;-78
2023/12/28 11:10:35;;;;;;;8.10;6.00;;;;;;;5.24;81.61;100289.59;110407;1230;1016337;-82
2023/12/28 11:15:27;;;;;;;7.40;5.50;;;;;;;5.36;81.41;100288.27;110571;1230;1018776;-81
2023/12/28 11:20:19;;;;;;;7.90;4.90;;;;;;;5.42;81.26;100280.70;110419;1233;1209379;-81
2023/12/28 11:25:18;;;;;;;7.20;5.60;;;;;;;5.50;81.34;100278.88;110500;1234;1070472;-81
2023/12/28 11:30:10;;;;;;;8.60;5.30;;;;;;;5.55;81.64;100278.87;110521;1230;1050541;-81
2023/12/28 11:35:02;;;;;;;6.80;5.40;;;;;;;5.58;81.71;100284.98;110452;1230;1016160;-80
2023/12/28 11:39:56;;;;;;;8.90;4.90;;;;;;;5.65;81.96;100290.36;110449;1234;1016356;-81
2023/12/28 11:44:49;;;;;;;7.60;5.00;;;;;;;5.71;82.16;100289.49;110490;1230;1073347;-81
2023/12/28 11:49:41;;;;;;;6.80;4.80;;;;;;;5.74;82.15;100298.00;110398;1234;1016250;-80
2023/12/28 11:54:33;;;;;;;8.40;5.60;;;;;;;5.78;82.24;100297.23;110457;1230;1016335;-80
2023/12/28 11:59:24;;;;;;;7.40;4.60;;;;;;;5.80;82.15;100291.46;110409;1230;1065224;-80
2023/12/28 12:04:16;;;;;;;8.50;5.10;;;;;;;5.84;82.36;100285.73;110570;1230;1016224;-80
2023/12/28 12:09:07;;;;;;;6.60;5.40;;;;;;;5.88;82.43;100287.08;110560;1231;1058972;-80
2023/12/28 12:13:59;;;;;;;11.00;5.80;;;;;;;5.91;82.40;100277.19;110500;1231;1016423;-80
2023/12/28 12:18:50;;;;;;;9.50;5.90;;;;;;;5.97;82.42;100272.02;110452;1230;1074263;-80
2023/12/28 12:23:43;;;;;;;11.60;6.00;;;;;;;6.04;82.56;100265.36;110550;1229;1016270;-81
2023/12/28 12:28:34;;;;;;;9.10;5.70;;;;;;;6.09;82.83;100267.58;110532;1231;1072712;-80
2023/12/28 12:33:27;;;;;;;8.80;5.50;;;;;;;6.11;82.97;100270.71;110536;1232;1016724;-80
2023/12/28 12:38:19;;;;;;;9.80;6.00;;;;;;;6.13;83.22;100272.48;110486;1230;1050132;-80
2023/12/28 12:43:10;;;;;;;11.10;6.20;;;;;;;6.12;83.24;100279.17;110565;1231;1016169;-80
2023/12/28 12:48:05;;;;;;;10.40;6.20;;;;;;;6.09;83.56;100275.84;110450;1230;1068351;-80
2023/12/28 12:52:59;;;;;;;8.80;5.30;;;;;;;6.07;83.63;100274.04;110457;1231;1070354;-78
2023/12/28 12:57:55;;;;;;;10.60;7.30;;;;;;;6.06;83.65;100276.78;110419;1230;1016288;-77
2023/12/28 13:02:47;;;;;;;11.80;6.60;;;;;;;6.04;83.69;100271.90;110458;1230;1057157;-76
2023/12/28 13:07:38;;;;;;;7.80;5.70;;;;;;;6.03;83.79;100275.48;110524;1233;1018614;-75
2023/12/28 13:12:30;;;;;;;11.90;6.30;;;;;;;6.04;83.64;100275.85;110467;1230;1070043;-76
2023/12/28 13:17:21;;;;;;;9.60;7.30;;;;;;;6.07;83.57;100265.80;110322;1230;1017739;-75
2023/12/28 13:22:12;;;;;;;14.90;6.80;;;;;;;6.11;83.47;100262.46;110376;1234;1075653;-76
2023/12/28 13:27:04;;;;;;;9.00;5.80;;;;;;;6.16;83.27;100268.61;110487;1233;1016144;-76
2023/12/28 13:31:56;;;;;;;10.30;6.30;;;;;;;6.18;83.14;100276.91;110369;1231;1050660;-76
2023/12/28 13:36:47;;;;;;;8.60;6.00;;;;;;;6.19;83.12;100284.16;110436;1231;1016030;-73
2023/12/28 13:41:39;;;;;;;10.30;6.60;;;;;;;6.20;82.88;100296.10;110334;1231;1065442;-74
2023/12/28 13:46:31;;;;;;;11.40;6.20;;;;;;;6.23;82.79;100291.70;110412;1231;1016490;-75
2023/12/28 13:51:23;;;;;;;9.80;5.50;;;;;;;6.24;82.71;100289.66;110423;1230;1061641;-73
2023/12/28 13:56:14;;;;;;;9.80;7.00;;;;;;;6.26;82.59;100293.31;110475;1230;1016348;-77
2023/12/28 14:01:06;;;;;;;9.90;6.30;;;;;;;6.27;82.48;100286.83;110363;1230;1070276;-76
2023/12/28 14:05:57;;;;;;;11.30;7.80;;;;;;;6.26;82.46;100295.20;110509;1230;1015937;-76
2023/12/28 14:10:49;;;;;;;9.30;5.60;;;;;;;6.24;82.43;100292.58;110323;1234;1075184;-79
2023/12/28 14:15:40;;;;;;;8.60;5.90;;;;;;;6.19;82.51;100289.17;110429;1234;1016318;-77
2023/12/28 14:20:32;;;;;;;9.70;6.30;;;;;;;6.09;82.49;100282.36;110335;1230;1050053;-76
2023/12/28 14:25:24;;;;;;;8.70;5.70;;;;;;;5.97;82.50;100285.98;110487;1231;1016173;-75
2023/12/28 14:30:16;;;;;;;6.80;5.00;;;;;;;5.83;82.71;100293.97;110348;1231;1065179;-73
2023/12/28 14:35:09;;;;;;;7.30;5.20;;;;;;;5.76;82.93;100286.35;110503;1231;1016245;-73
2023/12/28 14:40:05;;;;;;;9.70;6.20;;;;;;;5.69;83.04;100285.14;110563;1230;1058042;-74
2023/12/28 14:44:57;;;;;;;8.70;5.40;;;;;;;5.66;83.15;100280.91;110308;1230;1075260;-74
2023/12/28 14:49:48;;;;;;;7.40;5.80;;;;;;;5.66;83.05;100285.75;110501;1234;1015846;-74
2023/12/28 14:54:40;;;;;;;11.70;5.70;;;;;;;5.66;83.10;100284.52;110335;1230;1051423;-74
2023/12/28 14:59:31;;;;;;;11.40;5.90;;;;;;;5.67;83.26;100279.91;110402;1231;1016499;-73
2023/12/28 15:04:23;;;;;;;14.80;7.90;;;;;;;5.73;83.20;100289.55;110319;1230;1067844;-74
2023/12/28 15:09:17;;;;;;;13.40;7.90;;;;;;;5.78;83.14;100291.74;110351;1230;1071006;-74
2023/12/28 15:14:09;;;;;;;11.00;6.70;;;;;;;5.81;83.07;100294.77;110509;1231;1016470;-73
2023/12/28 15:19:01;;;;;;;10.70;7.10;;;;;;;5.82;82.99;100294.11;110356;1231;1072725;-73
2023/12/28 15:23:53;;;;;;;12.60;7.20;;;;;;;5.83;82.88;100292.06;110385;1234;1016159;-77
2023/12/28 15:28:47;;;;;;;12.70;7.60;;;;;;;5.79;83.00;100293.86;110416;1231;1050761;-74
2023/12/28 15:33:39;;;;;;;12.00;6.60;;;;;;;5.79;82.89;100290.92;110566;1230;1058495;-75
2023/12/28 15:38:31;;;;;;;13.10;7.80;;;;;;;5.76;82.70;100296.16;110482;1234;1016473;-74
2023/12/28 15:43:22;;;;;;;11.20;7.20;;;;;;;5.67;82.70;100294.70;110457;1231;1070885;-78
2023/12/28 15:48:14;;;;;;;11.50;6.90;;;;;;;5.55;82.56;100296.92;110410;1230;1015837;-79
2023/12/28 15:53:05;;;;;;;11.80;7.00;;;;;;;5.41;82.74;100294.06;110535;1231;1074789;-79
2023/12/28 15:57:57;;;;;;;10.60;6.90;;;;;;;5.26;82.75;100293.28;110518;1234;1016401;-78
2023/12/28 16:02:49;;;;;;;10.30;7.10;;;;;;;5.11;82.91;100292.29;110540;1230;1051902;-79
2023/12/28 16:07:41;;;;;;;10.30;6.70;;;;;;;4.96;82.89;100294.20;110506;1231;1018269;-77
2023/12/28 16:12:36;;;;;;;10.60;6.20;;;;;;;4.79;83.12;100293.15;110419;1231;1068050;-78
2023/12/28 16:17:32;;;;;;;10.50;5.90;;;;;;;4.64;83.19;100284.37;110441;1231;1072052;-78
2023/12/28 16:22:43;;;;;;;7.90;6.40;;;;;;;4.50;83.29;100278.77;110400;1232;1050585;-78
2023/12/28 16:34:22;;;;;;;9.50;6.20;;;;;;;4.19;83.46;100269.27;110375;1234;1072534;-78
2023/12/28 16:39:43;;;;;;;10.60;7.30;;;;;;;4.05;83.79;100261.90;110398;1230;1065682;-78
2023/12/28 16:44:50;;;;;;;9.60;6.60;;;;;;;3.92;83.78;100272.25;110419;1230;1070862;-78
2023/12/28 16:49:44;;;;;;;8.90;6.40;;;;;;;3.77;83.87;100271.19;110369;1231;1017241;-79
2023/12/28 16:54:38;;;;;;;10.50;6.80;;;;;;;3.63;83.93;100273.04;110577;1230;1016307;-76
2023/12/28 16:59:32;;;;;;;15.00;8.80;;;;;;;3.50;83.92;100283.03;110499;1231;1064941;-75
2023/12/28 17:04:27;;;;;;;11.60;7.20;;;;;;;3.37;84.14;100286.48;110503;1230;1015838;-75
2023/12/28 17:09:22;;;;;;;11.40;7.10;;;;;;;3.26;84.36;100289.61;110432;1230;1058029;-75
2023/12/28 17:14:14;;;;;;;9.20;7.10;;;;;;;3.18;84.31;100294.79;110395;1231;1015977;-75
2023/12/28 17:19:05;;;;;;;11.60;7.90;;;;;;;3.15;84.50;100302.38;110440;1234;1015790;-75
2023/12/28 17:23:58;;;;;;;14.50;8.20;;;;;;;3.17;84.77;100303.66;110449;1232;1050597;-75
2023/12/28 17:29:10;;;;;;;13.20;9.30;;;;;;;3.20;84.71;100305.48;110530;1233;1016591;-75
2023/12/28 17:34:03;;;;;;;14.30;8.50;;;;;;;3.20;84.80;100307.54;110463;1232;1064924;-75
2023/12/28 17:39:02;;;;;;;12.70;8.70;;;;;;;3.24;85.18;100309.92;110408;1230;1015919;-75
2023/12/28 17:43:57;;;;;;;15.20;10.00;;;;;;;3.28;85.00;100309.73;110408;1231;1051088;-76
2023/12/28 17:49:08;;;;;;;;;;;;;;;;;;;;;
2023/12/28 17:54:29;;;;;;;14.00;10.90;;;;;;;3.44;85.83;100311.08;110461;1231;1072464;-75
2023/12/28 17:59:26;;;;;;;26.90;12.70;;;;;;;3.70;85.93;100314.09;110418;1231;1065299;-74
2023/12/28 18:04:21;;;;;;;14.40;10.80;;;;;;;3.83;85.55;100309.48;110359;1231;1071969;-74
2023/12/28 18:09:13;;;;;;;22.60;12.20;;;;;;;3.93;85.52;100309.33;110458;1231;1018376;-75
2023/12/28 18:14:10;;;;;;;16.60;10.80;;;;;;;3.97;85.16;100309.81;110442;1231;1075479;-75
2023/12/28 18:19:04;;;;;;;18.10;11.90;;;;;;;3.97;85.03;100309.79;110426;1231;1066424;-75
2023/12/28 18:23:56;;;;;;;17.40;11.70;;;;;;;3.97;85.12;100308.42;110385;1231;1016618;-73
2023/12/28 18:28:47;;;;;;;17.70;11.90;;;;;;;3.97;85.00;100309.63;110441;1231;1016583;-74
2023/12/28 18:33:48;;;;;;;19.10;11.30;;;;;;;4.01;85.23;100312.70;110444;1234;1072566;-74
2023/12/28 18:38:45;;;;;;;18.70;11.00;;;;;;;4.04;85.01;100314.53;110467;1231;1064116;-75
2023/12/28 18:43:36;;;;;;;18.40;11.40;;;;;;;4.04;85.03;100312.27;110367;1231;1016382;-75
2023/12/28 18:48:58;;;;;;;17.20;11.20;;;;;;;3.99;84.65;100300.43;110458;1230;1016325;-75
2023/12/28 18:54:20;;;;;;;16.30;12.00;;;;;;;3.90;84.74;100292.05;110406;1230;1071740;-74
2023/12/28 18:59:12;;;;;;;16.10;10.20;;;;;;;3.86;84.85;100284.69;110423;1231;1065545;-75
2023/12/28 19:04:04;;;;;;;18.50;12.30;;;;;;;3.83;84.98;100284.77;110447;1231;1016457;-75
2023/12/28 19:09:04;;;;;;;18.80;12.30;;;;;;;3.81;85.13;100284.36;110434;1230;1058696;-75
2023/12/28 19:19:22;;;;;;;17.70;11.50;;;;;;;3.91;85.49;100287.30;110360;1234;1064828;-75
2023/12/28 19:24:14;;;;;;;17.00;11.60;;;;;;;3.97;85.40;100284.08;110445;1231;1016349;-75
2023/12/28 19:29:19;;;;;;;20.20;12.10;;;;;;;4.00;85.23;100293.13;110421;1231;1058480;-75
2023/12/28 19:34:20;;;;;;;17.30;11.30;;;;;;;3.99;85.07;100301.31;110332;1231;1072913;-75
2023/12/28 19:39:12;;;;;;;15.40;10.50;;;;;;;3.96;84.88;100300.52;110390;1234;1064943;-75
2023/12/28 19:44:04;;;;;;;18.70;11.60;;;;;;;3.93;85.01;100298.16;110420;1230;1016221;-75
2023/12/28 19:48:59;;;;;;;16.40;12.30;;;;;;;3.84;84.79;100293.73;110459;1231;1057172;-75
2023/12/28 19:53:51;;;;;;;16.80;12.20;;;;;;;3.80;85.00;100292.56;110583;1231;1072789;-75
2023/12/28 19:58:44;;;;;;;15.00;10.10;;;;;;;3.74;84.77;100289.27;110474;1234;1017203;-75
2023/12/28 20:03:41;;;;;;;17.70;13.30;;;;;;;3.65;84.80;100286.98;110461;1231;1051914;-76
2023/12/28 20:08:41;;;;;;;16.90;11.20;;;;;;;3.58;84.99;100289.33;110382;1232;1018464;-76
2023/12/28 20:13:53;;;;;;;18.50;12.20;;;;;;;3.56;84.95;100295.40;110421;1230;1071751;-75
2023/12/28 20:18:52;;;;;;;16.70;10.70;;;;;;;3.54;85.15;100296.34;110388;1232;1064651;-76
2023/12/28 20:23:50;;;;;;;16.40;11.30;;;;;;;3.50;85.06;100293.95;110472;1231;1070772;-75
2023/12/28 20:29:19;;;;;;;17.00;11.10;;;;;;;3.37;84.99;100296.38;110424;1231;1050215;-75
2023/12/28 20:34:31;;;;;;;14.20;9.40;;;;;;;3.24;84.97;100295.18;110334;1231;1057928;-75
2023/12/28 20:39:39;;;;;;;17.10;10.50;;;;;;;3.16;85.17;100289.38;110344;1231;1075224;-76
2023/12/28 20:44:32;;;;;;;20.20;11.50;;;;;;;3.14;85.48;100284.35;110483;1230;1064832;-75
2023/12/28 20:49:31;;;;;;;15.70;11.00;;;;;;;3.14;85.54;100289.32;110470;1234;1016128;-76
2023/12/28 20:54:40;;;;;;;13.30;9.10;;;;;;;3.14;85.48;100291.19;110547;1231;1058852;-76
2023/12/28 20:59:36;;;;;;;15.30;10.50;;;;;;;3.08;85.42;100286.52;110496;1234;1015964;-76
2023/12/28 21:05:06;;;;;;;14.30;9.10;;;;;;;3.03;85.59;100288.02;110395;1234;1070335;-76
2023/12/28 21:10:14;;;;;;;15.10;10.40;;;;;;;2.96;85.69;100283.47;110480;1232;1050654;-76
2023/12/28 21:15:07;;;;;;;13.80;9.90;;;;;;;2.90;85.87;100291.10;110437;1234;1058272;-76
2023/12/28 21:20:04;;;;;;;15.40;10.60;;;;;;;2.82;85.76;100294.02;110441;1234;1073331;-76
2023/12/28 21:25:00;;;;;;;14.60;9.70;;;;;;;2.76;85.51;100289.31;110522;1230;1065107;-76
2023/12/28 21:30:01;;;;;;;14.90;9.90;;;;;;;2.69;85.86;100281.17;110423;1232;1070096;-76
2023/12/28 21:35:13;;;;;;;13.20;9.60;;;;;;;2.68;86.22;100285.05;110488;1230;1049690;-76
2023/12/28 21:40:29;;;;;;;14.60;9.50;;;;;;;2.65;85.79;100287.69;109953;1235;1058844;-76
2023/12/28 21:45:23;;;;;;;13.90;9.60;;;;;;;2.63;85.88;100288.27;110016;1237;1072565;-75
2023/12/28 21:50:18;;;;;;;13.90;9.90;;;;;;;2.65;86.10;100290.75;109826;1239;1017133;-76
2023/12/28 21:55:12;;;;;;;14.90;10.20;;;;;;;2.66;86.14;100282.23;109959;1236;1051049;-76
2023/12/28 22:00:05;;;;;;;14.10;9.80;;;;;;;2.67;86.20;100279.02;109942;1235;1016231;-76
2023/12/28 22:05:11;;;;;;;17.10;10.00;;;;;;;2.70;86.70;100279.63;110360;1230;1065099;-76
2023/12/28 22:10:05;;;;;;;17.00;10.50;;;;;;;2.71;86.53;100282.10;110495;1232;1070176;-76